createdAt,value
2023-02-08T00:00:04.724Z,93.97
2023-02-08T00:02:31.316Z,93.43
2023-02-08T00:04:58.001Z,99.97
2023-02-08T00:07:25.820Z,99.47
2023-02-08T00:09:52.337Z,94.03
2023-02-08T00:12:18.852Z,95.27
2023-02-08T00:14:45.374Z,89.93
2023-02-08T00:17:11.825Z,87.77
2023-02-08T00:19:38.341Z,97.57
2023-02-08T00:22:04.825Z,95.17
2023-02-08T00:24:31.333Z,97.17
2023-02-08T00:26:57.799Z,88.83
2023-02-08T00:29:24.331Z,82.20
2023-02-08T00:31:50.969Z,91.77
2023-02-08T00:34:17.443Z,84.70
2023-02-08T00:36:43.964Z,93.97
2023-02-08T00:39:10.532Z,84.53
2023-02-08T00:41:37.031Z,92.10
2023-02-08T00:44:03.533Z,89.77
2023-02-08T00:46:30.077Z,81.30
2023-02-08T00:48:56.565Z,82.13
2023-02-08T00:51:23.126Z,80.50
2023-02-08T00:53:49.708Z,83.63
2023-02-08T00:56:16.342Z,93.13
2023-02-08T00:58:43.213Z,95.20
2023-02-08T01:01:10.024Z,83.97
2023-02-08T01:03:37.125Z,92.80
2023-02-08T01:06:04.268Z,100.57
2023-02-08T01:08:30.904Z,102.03
2023-02-08T01:11:07.669Z,104.73
2023-02-08T01:13:34.202Z,94.70
2023-02-08T01:16:11.103Z,95.00
2023-02-08T01:18:38.193Z,99.50
2023-02-08T01:21:05.928Z,95.93
2023-02-08T01:23:32.420Z,92.63
2023-02-08T01:25:58.942Z,98.93
2023-02-08T01:28:26.612Z,82.77
2023-02-08T01:30:53.133Z,91.23
2023-02-08T01:33:19.673Z,85.07
2023-02-08T01:35:46.184Z,81.37
2023-02-08T01:38:12.653Z,76.30
2023-02-08T01:40:39.460Z,75.40
2023-02-08T01:43:09.609Z,69.53
2023-02-08T01:45:36.164Z,72.90
2023-02-08T01:48:04.166Z,69.00
2023-02-08T01:50:32.736Z,71.57
2023-02-08T01:52:59.332Z,72.57
2023-02-08T01:55:26.660Z,71.97
2023-02-08T01:57:53.725Z,74.57
2023-02-08T02:00:23.846Z,69.23
2023-02-08T02:02:53.371Z,73.73
2023-02-08T02:05:24.244Z,68.63
2023-02-08T02:07:51.225Z,65.83
2023-02-08T02:10:34.020Z,72.07
2023-02-08T02:13:07.861Z,63.80
2023-02-08T02:15:34.452Z,67.73
2023-02-08T02:18:01.612Z,69.37
2023-02-08T02:20:50.830Z,60.30
2023-02-08T02:23:41.044Z,61.13
2023-02-08T02:26:22.953Z,66.83
2023-02-08T02:28:49.399Z,64.63
2023-02-08T02:31:36.837Z,63.27
2023-02-08T02:34:10.464Z,57.00
2023-02-08T02:36:43.829Z,63.83
2023-02-08T02:39:16.228Z,65.73
2023-02-08T02:42:04.507Z,61.10
2023-02-08T02:44:30.963Z,63.47
2023-02-08T02:47:18.924Z,64.47
2023-02-08T02:49:48.117Z,62.23
2023-02-08T02:52:23.720Z,60.03
2023-02-08T02:54:51.947Z,58.20
2023-02-08T02:57:22.455Z,57.57
2023-02-08T02:59:48.977Z,63.37
2023-02-08T03:02:15.469Z,60.50
2023-02-08T03:04:41.966Z,56.50
2023-02-08T03:07:16.405Z,54.27
2023-02-08T03:09:52.107Z,64.17
2023-02-08T03:12:26.018Z,67.13
2023-02-08T03:15:12.830Z,55.90
2023-02-08T03:17:42.854Z,62.73
2023-02-08T03:20:10.300Z,63.93
2023-02-08T03:22:39.806Z,65.30
2023-02-08T03:25:15.018Z,63.50
2023-02-08T03:27:50.639Z,62.50
2023-02-08T03:30:27.375Z,66.77
2023-02-08T03:33:01.558Z,60.90
2023-02-08T03:35:33.118Z,63.53
2023-02-08T03:38:00.824Z,75.17
2023-02-08T03:40:28.684Z,59.80
2023-02-08T03:42:56.126Z,64.57
2023-02-08T03:45:27.071Z,67.30
2023-02-08T03:47:53.853Z,68.90
2023-02-08T03:50:20.561Z,70.87
2023-02-08T03:52:47.190Z,65.30
2023-02-08T03:55:14.913Z,83.07
2023-02-08T03:57:55.626Z,66.13
2023-02-08T04:00:22.220Z,65.90
2023-02-08T04:02:51.416Z,60.13
2023-02-08T04:05:18.096Z,63.03
2023-02-08T04:07:44.570Z,68.97
2023-02-08T04:10:11.093Z,61.23
2023-02-08T04:12:37.693Z,65.60
2023-02-08T04:15:04.318Z,66.80
2023-02-08T04:17:30.958Z,62.97
2023-02-08T04:19:57.630Z,76.07
2023-02-08T04:22:24.183Z,69.03
2023-02-08T04:24:50.693Z,64.13
2023-02-08T04:27:17.177Z,70.77
2023-02-08T04:29:43.810Z,72.83
2023-02-08T04:32:11.855Z,73.43
2023-02-08T04:34:38.833Z,68.97
2023-02-08T04:37:05.539Z,72.67
2023-02-08T04:39:32.133Z,66.47
2023-02-08T04:41:58.646Z,69.63
2023-02-08T04:44:25.349Z,77.57
2023-02-08T04:46:51.988Z,76.17
2023-02-08T04:49:18.560Z,72.70
2023-02-08T04:51:45.090Z,72.00
2023-02-08T04:54:11.653Z,67.07
2023-02-08T04:56:38.689Z,70.30
2023-02-08T04:59:05.168Z,70.87
2023-02-08T05:01:31.742Z,65.73
2023-02-08T05:03:58.249Z,62.30
2023-02-08T05:06:24.857Z,63.90
2023-02-08T05:08:51.354Z,63.87
2023-02-08T05:11:21.286Z,65.10
2023-02-08T05:13:48.045Z,74.97
2023-02-08T05:16:14.608Z,62.00
2023-02-08T05:18:41.280Z,65.67
2023-02-08T05:21:07.789Z,59.47
2023-02-08T05:23:34.519Z,56.83
2023-02-08T05:26:01.036Z,62.43
2023-02-08T05:28:27.580Z,56.70
2023-02-08T05:30:54.194Z,62.50
2023-02-08T05:33:20.712Z,61.87
2023-02-08T05:35:47.249Z,61.23
2023-02-08T05:38:13.749Z,57.23
2023-02-08T05:40:40.522Z,60.53
2023-02-08T05:43:07.474Z,58.20
2023-02-08T05:45:33.973Z,55.73
2023-02-08T05:48:00.518Z,61.07
2023-02-08T05:50:27.776Z,60.87
2023-02-08T05:52:54.332Z,58.33
2023-02-08T05:55:20.857Z,59.40
2023-02-08T05:57:47.336Z,54.87
2023-02-08T06:00:14.239Z,59.43
2023-02-08T06:02:40.736Z,58.70
2023-02-08T06:05:07.551Z,55.03
2023-02-08T06:07:34.025Z,58.30
2023-02-08T06:10:00.553Z,58.53
2023-02-08T06:12:27.056Z,66.03
2023-02-08T06:14:53.554Z,58.50
2023-02-08T06:17:20.018Z,60.33
2023-02-08T06:19:46.540Z,57.43
2023-02-08T06:22:13.057Z,55.83
2023-02-08T06:24:39.525Z,56.07
2023-02-08T06:27:06.327Z,58.90
2023-02-08T06:29:32.805Z,57.10
2023-02-08T06:31:59.407Z,61.30
2023-02-08T06:34:25.973Z,60.73
2023-02-08T06:36:52.934Z,59.70
2023-02-08T06:39:19.437Z,58.27
2023-02-08T06:41:45.978Z,64.07
2023-02-08T06:44:12.673Z,56.00
2023-02-08T06:46:39.339Z,61.97
2023-02-08T06:49:05.910Z,65.77
2023-02-08T06:51:32.401Z,63.60
2023-02-08T06:53:58.928Z,63.50
2023-02-08T06:56:25.488Z,64.30
2023-02-08T06:58:52.100Z,65.23
2023-02-08T07:01:18.633Z,66.43
2023-02-08T07:03:45.198Z,67.43
2023-02-08T07:06:12.727Z,70.70
2023-02-08T07:08:39.304Z,67.17
2023-02-08T07:11:06.802Z,66.70
2023-02-08T07:13:33.308Z,69.00
2023-02-08T07:15:59.899Z,69.20
2023-02-08T07:18:26.444Z,68.93
2023-02-08T07:20:53.154Z,69.50
2023-02-08T07:23:19.648Z,63.00
2023-02-08T07:25:46.176Z,62.03
2023-02-08T07:28:12.721Z,65.93
2023-02-08T07:30:39.542Z,63.90
2023-02-08T07:33:06.206Z,56.37
2023-02-08T07:35:32.757Z,54.37
2023-02-08T07:37:59.268Z,57.60
2023-02-08T07:40:25.935Z,52.53
2023-02-08T07:42:52.527Z,53.37
2023-02-08T07:45:19.030Z,52.10
2023-02-08T07:47:46.181Z,53.50
2023-02-08T07:50:12.708Z,55.60
2023-02-08T07:52:39.277Z,59.77
2023-02-08T07:55:05.878Z,66.27
2023-02-08T07:57:32.464Z,52.77
2023-02-08T07:59:59.008Z,56.60
2023-02-08T08:02:25.539Z,56.07
2023-02-08T08:04:54.249Z,58.67
2023-02-08T08:07:20.716Z,62.67
2023-02-08T08:09:47.247Z,51.10
2023-02-08T08:12:13.721Z,45.10
2023-02-08T08:14:40.209Z,48.70
2023-02-08T08:17:06.722Z,42.80
2023-02-08T08:19:33.239Z,50.17
2023-02-08T08:21:59.731Z,45.07
2023-02-08T08:24:26.231Z,39.33
2023-02-08T08:26:52.834Z,40.97
2023-02-08T08:29:19.382Z,37.70
2023-02-08T08:31:46.044Z,32.70
2023-02-08T08:34:12.657Z,33.10
2023-02-08T08:36:39.143Z,35.83
2023-02-08T08:39:05.767Z,35.63
2023-02-08T08:41:32.327Z,28.67
2023-02-08T08:43:58.846Z,32.03
2023-02-08T08:46:25.382Z,37.47
2023-02-08T08:48:52.558Z,34.27
2023-02-08T08:51:19.086Z,31.83
2023-02-08T08:53:45.593Z,26.77
2023-02-08T08:56:12.136Z,28.37
2023-02-08T08:58:38.623Z,30.73
2023-02-08T09:01:05.317Z,29.53
2023-02-08T09:03:31.992Z,24.83
2023-02-08T09:05:58.550Z,29.07
2023-02-08T09:08:25.031Z,32.90
2023-02-08T09:10:51.539Z,31.93
2023-02-08T09:13:19.953Z,26.83
2023-02-08T09:15:46.742Z,33.33
2023-02-08T09:18:13.344Z,32.73
2023-02-08T09:20:39.902Z,29.07
2023-02-08T09:23:06.654Z,26.33
2023-02-08T09:25:33.447Z,26.43
2023-02-08T09:28:00.082Z,26.43
2023-02-08T09:30:26.612Z,25.03
2023-02-08T09:32:53.112Z,26.10
2023-02-08T09:35:19.774Z,25.33
2023-02-08T09:37:46.329Z,28.40
2023-02-08T09:40:16.623Z,27.87
2023-02-08T09:42:43.779Z,24.30
2023-02-08T09:45:10.219Z,22.10
2023-02-08T09:47:37.194Z,26.20
2023-02-08T09:50:03.699Z,31.90
2023-02-08T09:52:40.853Z,29.73
2023-02-08T09:55:17.775Z,28.07
2023-02-08T09:57:44.298Z,36.33
2023-02-08T10:00:12.998Z,29.07
2023-02-08T10:02:39.499Z,32.13
2023-02-08T10:05:06.133Z,25.20
2023-02-08T10:07:32.829Z,25.70
2023-02-08T10:10:00.457Z,27.93
2023-02-08T10:12:33.192Z,26.63
2023-02-08T10:15:06.293Z,31.47
2023-02-08T10:17:42.156Z,27.40
2023-02-08T10:20:13.430Z,28.43
2023-02-08T10:22:58.905Z,27.13
2023-02-08T10:25:25.437Z,28.37
2023-02-08T10:28:10.483Z,32.30
2023-02-08T10:30:49.429Z,30.70
2023-02-08T10:33:22.525Z,32.27
2023-02-08T10:35:49.671Z,32.50
2023-02-08T10:38:16.176Z,32.90
2023-02-08T10:40:43.380Z,43.67
2023-02-08T10:43:19.396Z,30.63
2023-02-08T10:45:49.521Z,26.80
2023-02-08T10:48:17.741Z,27.23
2023-02-08T10:50:44.607Z,28.83
2023-02-08T10:53:13.477Z,30.60
2023-02-08T10:55:39.938Z,26.50
2023-02-08T10:58:06.424Z,27.13
2023-02-08T11:00:37.286Z,24.83
2023-02-08T11:03:12.737Z,25.73
2023-02-08T11:05:40.607Z,28.83
2023-02-08T11:08:08.314Z,26.07
2023-02-08T11:10:35.032Z,26.37
2023-02-08T11:13:04.014Z,26.40
2023-02-08T11:15:33.701Z,20.10
2023-02-08T11:18:00.987Z,18.93
2023-02-08T11:20:36.700Z,23.33
2023-02-08T11:23:04.131Z,21.27
2023-02-08T11:25:35.938Z,18.40
2023-02-08T11:28:02.638Z,22.93
2023-02-08T11:30:29.228Z,19.17
2023-02-08T11:33:14.543Z,17.37
2023-02-08T11:35:41.215Z,13.93
2023-02-08T11:38:15.990Z,14.90
2023-02-08T11:40:46.034Z,18.63
2023-02-08T11:43:22.818Z,16.63
2023-02-08T11:45:49.428Z,15.97
2023-02-08T11:48:21.249Z,12.17
2023-02-08T11:50:50.355Z,16.17
2023-02-08T11:53:23.337Z,15.87
2023-02-08T11:56:19.473Z,18.47
2023-02-08T11:58:56.204Z,15.23
2023-02-08T12:01:23.096Z,17.47
2023-02-08T12:03:50.416Z,18.33
2023-02-08T12:06:40.638Z,17.90
2023-02-08T12:09:08.609Z,19.80
2023-02-08T12:11:42.359Z,18.93
2023-02-08T12:14:20.994Z,20.77
2023-02-08T12:16:57.993Z,18.07
2023-02-08T12:19:27.460Z,23.43
2023-02-08T12:21:57.174Z,20.37
2023-02-08T12:24:33.249Z,14.50
2023-02-08T12:27:02.820Z,17.33
2023-02-08T12:29:46.872Z,18.93
2023-02-08T12:32:23.649Z,16.87
2023-02-08T12:34:50.132Z,16.13
2023-02-08T12:37:41.881Z,17.23
2023-02-08T12:40:30.018Z,20.03
2023-02-08T12:43:02.672Z,19.53
2023-02-08T12:45:35.963Z,18.43
2023-02-08T12:48:05.474Z,18.87
2023-02-08T12:50:34.247Z,18.23
2023-02-08T12:53:01.366Z,18.73
2023-02-08T12:55:34.727Z,21.87
2023-02-08T12:58:16.510Z,19.90
2023-02-08T13:00:43.219Z,21.03
2023-02-08T13:03:12.975Z,20.87
2023-02-08T13:05:41.687Z,22.30
2023-02-08T13:08:14.294Z,22.23
2023-02-08T13:10:40.953Z,22.07
2023-02-08T13:13:12.323Z,21.83
2023-02-08T13:15:40.422Z,19.73
2023-02-08T13:18:15.696Z,22.83
2023-02-08T13:20:42.196Z,19.97
2023-02-08T13:23:14.792Z,22.63
2023-02-08T13:25:41.509Z,22.03
2023-02-08T13:28:11.029Z,25.13
2023-02-08T13:30:39.990Z,24.63
2023-02-08T13:33:17.177Z,23.23
2023-02-08T13:35:43.976Z,24.73
2023-02-08T13:38:24.238Z,23.13
2023-02-08T13:41:01.078Z,22.87
2023-02-08T13:43:36.570Z,22.33
2023-02-08T13:46:04.463Z,26.73
2023-02-08T13:48:40.847Z,24.53
2023-02-08T13:51:08.473Z,25.90
2023-02-08T13:53:38.111Z,25.23
2023-02-08T13:56:11.241Z,24.83
2023-02-08T13:58:50.069Z,22.50
2023-02-08T14:01:23.167Z,26.57
2023-02-08T14:04:12.897Z,22.73
2023-02-08T14:06:49.654Z,24.97
2023-02-08T14:09:28.669Z,25.23
2023-02-08T14:11:58.321Z,24.27
2023-02-08T14:14:25.878Z,23.47
2023-02-08T14:17:04.716Z,29.50
2023-02-08T14:19:34.782Z,28.20
2023-02-08T14:22:01.229Z,27.67
2023-02-08T14:24:49.236Z,26.60
2023-02-08T14:27:20.955Z,31.73
2023-02-08T14:30:02.704Z,29.33
2023-02-08T14:32:30.021Z,28.53
2023-02-08T14:35:01.123Z,25.00
2023-02-08T14:37:28.831Z,27.70
2023-02-08T14:40:14.281Z,27.43
2023-02-08T14:42:53.346Z,28.50
2023-02-08T14:45:46.323Z,29.13
2023-02-08T14:48:20.303Z,26.00
2023-02-08T14:51:10.339Z,27.17
2023-02-08T14:53:53.164Z,25.17
2023-02-08T14:56:24.265Z,28.07
2023-02-08T14:58:57.655Z,29.43
2023-02-08T15:01:27.125Z,29.47
2023-02-08T15:03:58.805Z,33.73
2023-02-08T15:06:30.240Z,28.07
2023-02-08T15:08:56.800Z,31.77
2023-02-08T15:11:30.283Z,25.87
2023-02-08T15:13:59.305Z,30.73
2023-02-08T15:16:37.182Z,27.40
2023-02-08T15:19:04.310Z,28.67
2023-02-08T15:21:32.292Z,32.73
2023-02-08T15:23:59.721Z,30.53
2023-02-08T15:26:26.925Z,29.93
2023-02-08T15:28:53.403Z,28.87
2023-02-08T15:31:21.143Z,31.10
2023-02-08T15:33:47.764Z,32.77
2023-02-08T15:36:18.704Z,34.30
2023-02-08T15:38:45.265Z,29.07
2023-02-08T15:41:13.142Z,38.43
2023-02-08T15:43:39.887Z,37.83
2023-02-08T15:46:07.388Z,43.17
2023-02-08T15:48:33.992Z,47.23
2023-02-08T15:51:00.559Z,52.87
2023-02-08T15:53:27.263Z,39.30
2023-02-08T15:55:54.748Z,34.57
2023-02-08T15:58:28.878Z,31.17
2023-02-08T16:00:56.152Z,33.80
2023-02-08T16:03:25.712Z,32.47
2023-02-08T16:05:54.244Z,39.40
2023-02-08T16:08:28.230Z,37.93
2023-02-08T16:10:59.221Z,43.10
2023-02-08T16:13:32.855Z,42.73
2023-02-08T16:16:19.695Z,38.63
2023-02-08T16:18:52.130Z,37.60
2023-02-08T16:21:24.652Z,33.50
2023-02-08T16:23:52.244Z,37.07
2023-02-08T16:26:28.374Z,50.43
2023-02-08T16:28:55.204Z,46.90
2023-02-08T16:31:26.942Z,42.10
2023-02-08T16:33:57.662Z,40.00
2023-02-08T16:36:31.026Z,42.00
2023-02-08T16:39:16.454Z,42.70
2023-02-08T16:42:14.601Z,42.13
2023-02-08T16:44:42.148Z,39.07
2023-02-08T16:47:24.818Z,43.63
2023-02-08T16:49:51.458Z,43.47
2023-02-08T16:52:17.936Z,43.93
2023-02-08T16:54:44.439Z,48.07
2023-02-08T16:57:11.127Z,48.40
2023-02-08T16:59:37.655Z,46.10
2023-02-08T17:02:06.300Z,44.23
2023-02-08T17:04:34.997Z,44.17
2023-02-08T17:07:01.592Z,47.10
2023-02-08T17:09:28.073Z,41.27
2023-02-08T17:11:54.622Z,47.83
2023-02-08T17:14:21.143Z,43.77
2023-02-08T17:16:47.710Z,44.67
2023-02-08T17:19:16.378Z,41.03
2023-02-08T17:21:42.866Z,43.27
2023-02-08T17:24:09.366Z,38.23
2023-02-08T17:26:37.877Z,39.03
2023-02-08T17:29:04.452Z,40.93
2023-02-08T17:31:31.265Z,40.63
2023-02-08T17:34:06.812Z,38.47
2023-02-08T17:36:33.987Z,43.87
2023-02-08T17:39:00.471Z,33.80
2023-02-08T17:41:27.129Z,42.67
2023-02-08T17:43:55.343Z,43.57
2023-02-08T17:46:22.936Z,41.27
2023-02-08T17:48:49.561Z,44.17
2023-02-08T17:51:17.008Z,47.23
2023-02-08T17:53:43.805Z,43.80
2023-02-08T17:56:11.292Z,52.20
2023-02-08T17:58:38.014Z,48.37
2023-02-08T18:01:04.883Z,49.67
2023-02-08T18:03:31.982Z,48.83
2023-02-08T18:05:58.785Z,48.70
2023-02-08T18:08:25.401Z,53.60
2023-02-08T18:10:52.040Z,49.97
2023-02-08T18:13:18.654Z,43.40
2023-02-08T18:15:45.710Z,47.27
2023-02-08T18:18:13.177Z,45.73
2023-02-08T18:20:43.029Z,40.07
2023-02-08T18:23:09.741Z,45.80
2023-02-08T18:25:36.419Z,46.50
2023-02-08T18:28:02.990Z,46.00
2023-02-08T18:30:29.831Z,49.33
2023-02-08T18:32:56.376Z,50.33
2023-02-08T18:35:22.892Z,50.77
2023-02-08T18:37:50.226Z,56.83
2023-02-08T18:40:16.914Z,55.07
2023-02-08T18:42:43.417Z,56.23
2023-02-08T18:45:10.010Z,63.80
2023-02-08T18:47:36.956Z,56.77
2023-02-08T18:50:03.801Z,65.43
2023-02-08T18:52:31.611Z,66.27
2023-02-08T18:54:58.246Z,64.90
2023-02-08T18:57:24.898Z,61.27
2023-02-08T18:59:54.047Z,71.00
2023-02-08T19:02:21.350Z,73.47
2023-02-08T19:04:48.078Z,61.40
2023-02-08T19:07:14.783Z,57.30
2023-02-08T19:09:41.376Z,58.90
2023-02-08T19:12:08.029Z,57.03
2023-02-08T19:14:34.566Z,57.67
2023-02-08T19:17:02.273Z,57.90
2023-02-08T19:19:28.789Z,66.03
2023-02-08T19:21:55.261Z,66.03
2023-02-08T19:24:21.794Z,65.63
2023-02-08T19:26:48.396Z,65.13
2023-02-08T19:29:15.619Z,58.33
2023-02-08T19:31:42.310Z,63.67
2023-02-08T19:34:09.706Z,66.40
2023-02-08T19:36:38.040Z,64.70
2023-02-08T19:39:04.918Z,58.90
2023-02-08T19:41:38.501Z,62.50
2023-02-08T19:44:05.557Z,59.77
2023-02-08T19:46:33.265Z,57.33
2023-02-08T19:49:01.133Z,61.03
2023-02-08T19:51:28.139Z,72.83
2023-02-08T19:53:56.882Z,71.03
2023-02-08T19:56:23.610Z,73.37
2023-02-08T19:58:50.191Z,67.20
2023-02-08T20:01:17.638Z,62.57
2023-02-08T20:03:44.773Z,57.73
2023-02-08T20:06:16.328Z,55.80
2023-02-08T20:08:43.184Z,59.20
2023-02-08T20:11:17.012Z,53.47
2023-02-08T20:13:43.585Z,59.07
2023-02-08T20:16:10.076Z,57.43
2023-02-08T20:18:36.635Z,61.73
2023-02-08T20:21:03.392Z,61.70
2023-02-08T20:23:30.078Z,64.33
2023-02-08T20:26:10.777Z,72.23
2023-02-08T20:28:38.030Z,74.23
2023-02-08T20:31:08.402Z,105.57
2023-02-08T20:33:35.077Z,106.90
2023-02-08T20:36:05.403Z,98.03
2023-02-08T20:38:32.065Z,102.37
2023-02-08T20:41:02.592Z,109.30
2023-02-08T20:43:29.298Z,104.13
2023-02-08T20:45:55.823Z,98.57
2023-02-08T20:48:22.343Z,99.63
2023-02-08T20:50:48.908Z,102.63
2023-02-08T20:53:15.635Z,95.27
2023-02-08T20:55:42.520Z,89.77
2023-02-08T20:58:09.127Z,89.50
2023-02-08T21:00:48.919Z,85.53
2023-02-08T21:03:15.532Z,88.00
2023-02-08T21:05:42.263Z,83.00
2023-02-08T21:08:09.068Z,83.27
2023-02-08T21:10:36.251Z,85.20
2023-02-08T21:13:02.711Z,83.60
2023-02-08T21:15:29.552Z,81.67
2023-02-08T21:17:56.268Z,74.93
2023-02-08T21:20:22.987Z,72.93
2023-02-08T21:22:49.495Z,79.87
2023-02-08T21:25:16.072Z,71.03
2023-02-08T21:27:42.602Z,66.13
2023-02-08T21:30:09.515Z,73.03
2023-02-08T21:32:36.036Z,64.60
2023-02-08T21:35:02.519Z,66.90
2023-02-08T21:37:29.018Z,59.70
2023-02-08T21:39:55.481Z,59.40
2023-02-08T21:42:22.224Z,67.40
2023-02-08T21:44:48.720Z,58.53
2023-02-08T21:47:15.392Z,59.40
2023-02-08T21:50:00.839Z,53.80
2023-02-08T21:52:46.088Z,49.13
2023-02-08T21:55:12.796Z,55.40
2023-02-08T21:57:41.091Z,54.53
2023-02-08T22:00:08.409Z,53.10
2023-02-08T22:02:34.889Z,55.10
2023-02-08T22:05:03.023Z,55.87
2023-02-08T22:07:29.582Z,60.77
2023-02-08T22:09:56.213Z,62.37
2023-02-08T22:12:22.927Z,63.67
2023-02-08T22:14:49.676Z,63.90
2023-02-08T22:17:16.253Z,67.30
2023-02-08T22:19:42.848Z,65.40
2023-02-08T22:22:09.943Z,61.30
2023-02-08T22:24:37.189Z,71.00
2023-02-08T22:27:03.751Z,65.37
2023-02-08T22:29:30.301Z,71.40
2023-02-08T22:31:57.152Z,71.17
2023-02-08T22:34:26.146Z,81.33
2023-02-08T22:36:52.669Z,80.33
2023-02-08T22:39:19.226Z,80.67
2023-02-08T22:41:45.731Z,88.30
2023-02-08T22:44:12.341Z,82.93
2023-02-08T22:46:38.873Z,87.63
2023-02-08T22:49:05.510Z,89.17
2023-02-08T22:51:32.005Z,93.13
2023-02-08T22:53:58.556Z,93.87
2023-02-08T22:56:25.115Z,97.53
2023-02-08T22:58:51.713Z,101.10
2023-02-08T23:01:18.313Z,97.80
2023-02-08T23:03:45.002Z,95.33
2023-02-08T23:06:12.819Z,104.93
2023-02-08T23:08:39.340Z,101.20
2023-02-08T23:11:05.974Z,94.30
2023-02-08T23:13:32.697Z,94.07
2023-02-08T23:15:59.249Z,99.60
2023-02-08T23:18:25.846Z,97.73
2023-02-08T23:20:53.462Z,98.63
2023-02-08T23:23:20.032Z,96.13
2023-02-08T23:25:47.451Z,92.17
2023-02-08T23:28:14.013Z,90.10
2023-02-08T23:30:41.035Z,86.33
2023-02-08T23:33:07.578Z,89.70
2023-02-08T23:35:34.164Z,102.10
2023-02-08T23:38:00.892Z,92.80
2023-02-08T23:40:27.374Z,95.87
2023-02-08T23:42:53.904Z,90.70
2023-02-08T23:45:20.488Z,86.37
2023-02-08T23:47:46.997Z,98.27
2023-02-08T23:50:13.531Z,94.10
2023-02-08T23:52:40.010Z,98.13
2023-02-08T23:55:06.641Z,101.77
2023-02-08T23:57:33.503Z,102.50
